createdAt,value
2018-07-30T00:01:13.713Z,6.90
2018-07-30T00:03:42.080Z,6.97
2018-07-30T00:06:10.390Z,6.13
2018-07-30T00:08:38.664Z,7.03
2018-07-30T00:11:07.069Z,6.10
2018-07-30T00:13:35.432Z,7.00
2018-07-30T00:16:03.744Z,7.70
2018-07-30T00:18:32.074Z,6.20
2018-07-30T00:21:00.382Z,6.90
2018-07-30T00:23:28.657Z,6.30
2018-07-30T00:25:56.949Z,6.23
2018-07-30T00:28:25.238Z,7.37
2018-07-30T00:30:54.504Z,7.13
2018-07-30T00:33:22.786Z,6.60
2018-07-30T00:35:51.133Z,6.60
2018-07-30T00:38:19.432Z,6.50
2018-07-30T00:40:47.782Z,6.70
2018-07-30T00:43:16.100Z,7.13
2018-07-30T00:45:44.396Z,6.60
2018-07-30T00:48:12.697Z,7.90
2018-07-30T00:50:41.031Z,7.33
2018-07-30T00:53:09.297Z,7.60
2018-07-30T00:55:37.608Z,6.87
2018-07-30T00:58:05.981Z,6.80
2018-07-30T01:00:34.328Z,7.57
2018-07-30T01:03:02.597Z,6.90
2018-07-30T01:05:30.925Z,6.93
2018-07-30T01:07:59.189Z,5.93
2018-07-30T01:10:27.507Z,6.50
2018-07-30T01:12:55.934Z,6.93
2018-07-30T01:15:24.443Z,6.07
2018-07-30T01:17:52.864Z,6.73
2018-07-30T01:20:21.165Z,7.50
2018-07-30T01:22:49.581Z,6.00
2018-07-30T01:25:17.955Z,6.33
2018-07-30T01:27:46.302Z,7.80
2018-07-30T01:30:14.524Z,6.47
2018-07-30T01:32:42.835Z,6.30
2018-07-30T01:35:11.180Z,6.80
2018-07-30T01:37:39.517Z,6.53
2018-07-30T01:40:07.904Z,7.47
2018-07-30T01:42:36.254Z,6.90
2018-07-30T01:45:04.669Z,6.80
2018-07-30T01:47:33.633Z,6.70
2018-07-30T01:50:02.010Z,6.40
2018-07-30T01:52:30.342Z,7.33
2018-07-30T01:54:58.794Z,7.00
2018-07-30T01:57:27.110Z,6.73
2018-07-30T01:59:55.973Z,7.00
2018-07-30T02:02:24.367Z,6.10
2018-07-30T02:04:52.680Z,6.70
2018-07-30T02:07:21.000Z,7.40
2018-07-30T02:09:49.350Z,6.70
2018-07-30T02:12:17.715Z,6.90
2018-07-30T02:14:46.041Z,7.43
2018-07-30T02:17:14.426Z,7.00
2018-07-30T02:19:42.741Z,7.10
2018-07-30T02:22:11.188Z,7.40
2018-07-30T02:24:39.484Z,7.17
2018-07-30T02:27:07.656Z,7.67
2018-07-30T02:29:35.853Z,7.40
2018-07-30T02:32:04.278Z,6.87
2018-07-30T02:34:32.615Z,7.60
2018-07-30T02:37:01.058Z,7.80
2018-07-30T02:39:29.326Z,6.80
2018-07-30T02:41:57.557Z,7.17
2018-07-30T02:44:25.913Z,6.60
2018-07-30T02:46:54.272Z,7.63
2018-07-30T02:49:22.538Z,7.00
2018-07-30T02:51:50.720Z,6.83
2018-07-30T02:54:19.073Z,8.13
2018-07-30T02:56:47.489Z,7.10
2018-07-30T02:59:15.828Z,7.10
2018-07-30T03:01:44.450Z,8.10
2018-07-30T03:04:13.078Z,7.40
2018-07-30T03:06:41.402Z,6.90
2018-07-30T03:09:10.726Z,7.43
2018-07-30T03:11:39.309Z,7.40
2018-07-30T03:14:08.070Z,7.13
2018-07-30T03:16:36.377Z,6.90
2018-07-30T03:19:04.935Z,7.30
2018-07-30T03:21:33.372Z,6.47
2018-07-30T03:24:01.685Z,7.77
2018-07-30T03:26:30.084Z,6.90
2018-07-30T03:28:58.401Z,7.07
2018-07-30T03:31:26.761Z,6.90
2018-07-30T03:33:55.211Z,6.70
2018-07-30T03:36:23.579Z,7.70
2018-07-30T03:38:51.937Z,7.00
2018-07-30T03:41:20.268Z,7.00
2018-07-30T03:43:48.640Z,7.23
2018-07-30T03:46:17.010Z,6.70
2018-07-30T03:48:45.355Z,8.33
2018-07-30T03:51:13.643Z,7.30
2018-07-30T03:53:41.945Z,7.43
2018-07-30T03:56:10.269Z,7.90
2018-07-30T03:58:38.651Z,8.13
2018-07-30T04:01:06.948Z,7.40
2018-07-30T04:03:35.312Z,7.27
2018-07-30T04:06:03.704Z,7.23
2018-07-30T04:08:32.094Z,7.40
2018-07-30T04:11:00.482Z,7.33
2018-07-30T04:13:28.801Z,7.77
2018-07-30T04:15:57.148Z,7.70
2018-07-30T04:18:25.477Z,8.07
2018-07-30T04:20:53.793Z,7.30
2018-07-30T04:23:22.121Z,7.40
2018-07-30T04:25:50.428Z,8.50
2018-07-30T04:28:18.844Z,7.50
2018-07-30T04:30:47.188Z,6.90
2018-07-30T04:33:15.501Z,7.73
2018-07-30T04:35:43.688Z,7.07
2018-07-30T04:38:11.992Z,7.30
2018-07-30T04:40:40.326Z,7.30
2018-07-30T04:43:08.548Z,6.90
2018-07-30T04:45:36.877Z,7.10
2018-07-30T04:48:05.328Z,8.67
2018-07-30T04:50:33.777Z,7.20
2018-07-30T04:53:02.190Z,8.57
2018-07-30T04:55:30.540Z,7.97
2018-07-30T04:57:58.864Z,7.10
2018-07-30T05:00:27.206Z,7.27
2018-07-30T05:02:55.530Z,7.33
2018-07-30T05:05:23.944Z,6.97
2018-07-30T05:07:52.286Z,7.00
2018-07-30T05:10:20.657Z,8.20
2018-07-30T05:12:48.970Z,8.13
2018-07-30T05:15:17.215Z,7.60
2018-07-30T05:17:45.510Z,6.93
2018-07-30T05:20:13.878Z,7.10
2018-07-30T05:22:42.208Z,8.07
2018-07-30T05:25:10.531Z,7.20
2018-07-30T05:27:38.858Z,7.40
2018-07-30T05:30:07.230Z,6.83
2018-07-30T05:32:35.633Z,7.00
2018-07-30T05:35:04.142Z,7.23
2018-07-30T05:37:32.454Z,7.13
2018-07-30T05:40:00.811Z,7.80
2018-07-30T05:42:29.510Z,6.97
2018-07-30T05:44:57.810Z,7.17
2018-07-30T05:47:26.232Z,8.57
2018-07-30T05:49:54.549Z,7.97
2018-07-30T05:52:22.936Z,8.67
2018-07-30T05:54:51.402Z,8.00
2018-07-30T05:57:19.705Z,7.50
2018-07-30T05:59:48.152Z,7.70
2018-07-30T06:02:16.539Z,7.13
2018-07-30T06:04:44.936Z,7.60
2018-07-30T06:07:13.337Z,6.93
2018-07-30T06:09:42.060Z,7.60
2018-07-30T06:12:10.451Z,7.87
2018-07-30T06:14:38.800Z,9.67
2018-07-30T06:17:07.289Z,7.70
2018-07-30T06:19:35.639Z,8.20
2018-07-30T06:22:04.076Z,8.00
2018-07-30T06:24:32.459Z,8.47
2018-07-30T06:27:00.798Z,8.07
2018-07-30T06:29:29.241Z,8.57
2018-07-30T06:31:57.663Z,9.30
2018-07-30T06:34:26.033Z,8.40
2018-07-30T06:36:54.340Z,8.10
2018-07-30T06:39:22.960Z,8.53
2018-07-30T06:41:51.229Z,8.80
2018-07-30T06:44:19.565Z,8.80
2018-07-30T06:46:47.926Z,8.33
2018-07-30T06:49:16.302Z,9.37
2018-07-30T06:51:44.765Z,8.13
2018-07-30T06:54:13.089Z,9.10
2018-07-30T06:56:41.451Z,8.37
2018-07-30T06:59:09.846Z,9.33
2018-07-30T07:01:38.204Z,9.00
2018-07-30T07:04:06.701Z,8.60
2018-07-30T07:06:35.389Z,8.27
2018-07-30T07:09:07.249Z,8.10
2018-07-30T07:11:35.732Z,9.27
2018-07-30T07:14:04.109Z,8.57
2018-07-30T07:16:32.430Z,8.17
2018-07-30T07:19:00.944Z,8.27
2018-07-30T07:21:29.348Z,8.70
2018-07-30T07:23:57.669Z,8.50
2018-07-30T07:26:26.076Z,8.80
2018-07-30T07:28:54.473Z,8.27
2018-07-30T07:31:23.569Z,8.83
2018-07-30T07:33:52.068Z,8.53
2018-07-30T07:36:20.390Z,8.13
2018-07-30T07:38:48.794Z,9.37
2018-07-30T07:41:17.135Z,9.07
2018-07-30T07:43:45.508Z,8.40
2018-07-30T07:46:13.817Z,7.90
2018-07-30T07:48:42.130Z,10.00
2018-07-30T07:51:10.414Z,8.17
2018-07-30T07:53:38.680Z,8.70
2018-07-30T07:56:06.923Z,9.43
2018-07-30T07:58:35.344Z,7.80
2018-07-30T08:01:03.780Z,7.60
2018-07-30T08:03:32.245Z,8.13
2018-07-30T08:06:00.583Z,8.60
2018-07-30T08:08:28.900Z,8.23
2018-07-30T08:10:57.829Z,8.50
2018-07-30T08:13:26.345Z,9.00
2018-07-30T08:15:54.643Z,7.37
2018-07-30T08:18:22.925Z,8.97
2018-07-30T08:20:51.266Z,13.80
2018-07-30T08:23:19.629Z,8.40
2018-07-30T08:25:47.991Z,6.60
2018-07-30T08:28:16.355Z,7.27
2018-07-30T08:30:44.819Z,8.17
2018-07-30T08:33:13.197Z,7.27
2018-07-30T08:35:42.103Z,7.70
2018-07-30T08:38:10.520Z,9.13
2018-07-30T08:40:38.846Z,6.90
2018-07-30T08:43:07.213Z,7.00
2018-07-30T08:45:35.580Z,7.80
2018-07-30T08:48:04.001Z,7.63
2018-07-30T08:50:32.341Z,6.87
2018-07-30T08:53:01.423Z,6.50
2018-07-30T08:55:29.774Z,6.20
2018-07-30T08:57:58.208Z,5.83
2018-07-30T09:00:26.525Z,6.97
2018-07-30T09:02:54.912Z,6.43
2018-07-30T09:05:23.232Z,7.23
2018-07-30T09:07:51.981Z,6.00
2018-07-30T09:10:20.318Z,6.30
2018-07-30T09:12:48.810Z,6.30
2018-07-30T09:15:17.585Z,5.47
2018-07-30T09:17:45.821Z,6.60
2018-07-30T09:20:14.147Z,5.53
2018-07-30T09:22:42.461Z,6.23
2018-07-30T09:25:10.796Z,6.40
2018-07-30T09:27:39.181Z,5.60
2018-07-30T09:30:07.540Z,5.77
2018-07-30T09:32:35.890Z,5.87
2018-07-30T09:35:04.504Z,5.40
2018-07-30T09:37:32.852Z,6.27
2018-07-30T09:40:02.293Z,5.47
2018-07-30T09:42:30.600Z,5.43
2018-07-30T09:44:59.093Z,5.47
2018-07-30T09:47:27.296Z,4.90
2018-07-30T09:49:55.735Z,5.27
2018-07-30T09:52:24.173Z,5.03
2018-07-30T09:54:52.407Z,5.53
2018-07-30T09:57:20.804Z,5.20
2018-07-30T09:59:49.240Z,4.47
2018-07-30T10:02:17.669Z,6.10
2018-07-30T10:04:46.029Z,5.20
2018-07-30T10:07:14.932Z,5.83
2018-07-30T10:09:43.294Z,6.50
2018-07-30T10:12:11.700Z,5.73
2018-07-30T10:14:40.053Z,6.40
2018-07-30T10:17:08.393Z,5.97
2018-07-30T10:19:36.749Z,5.23
2018-07-30T10:22:05.141Z,4.83
2018-07-30T10:24:33.521Z,7.50
2018-07-30T10:27:01.929Z,5.83
2018-07-30T10:29:30.314Z,6.13
2018-07-30T10:31:58.621Z,5.63
2018-07-30T10:34:26.913Z,6.40
2018-07-30T10:36:55.242Z,5.97
2018-07-30T10:39:23.613Z,6.27
2018-07-30T10:41:52.033Z,6.10
2018-07-30T10:44:20.428Z,5.47
2018-07-30T10:46:48.782Z,5.73
2018-07-30T10:49:17.102Z,6.20
2018-07-30T10:51:45.507Z,5.93
2018-07-30T10:54:13.845Z,6.40
2018-07-30T10:56:42.206Z,5.43
2018-07-30T10:59:10.584Z,5.73
2018-07-30T11:01:39.029Z,5.10
2018-07-30T11:04:07.464Z,6.03
2018-07-30T11:06:36.680Z,5.37
2018-07-30T11:09:08.360Z,6.40
2018-07-30T11:11:36.791Z,6.80
2018-07-30T11:14:05.466Z,5.60
2018-07-30T11:16:33.897Z,6.13
2018-07-30T11:19:02.444Z,6.00
2018-07-30T11:21:30.814Z,5.60
2018-07-30T11:23:59.174Z,6.10
2018-07-30T11:26:27.541Z,5.90
2018-07-30T11:28:55.898Z,6.00
2018-07-30T11:31:24.080Z,6.60
2018-07-30T11:33:52.457Z,7.00
2018-07-30T11:36:20.868Z,5.27
2018-07-30T11:38:49.235Z,6.30
2018-07-30T11:41:17.577Z,5.60
2018-07-30T11:43:45.949Z,5.33
2018-07-30T11:46:14.270Z,5.70
2018-07-30T11:48:42.780Z,6.43
2018-07-30T11:51:11.116Z,5.80
2018-07-30T11:53:39.545Z,5.97
2018-07-30T11:56:07.790Z,6.93
2018-07-30T11:58:36.174Z,6.37
2018-07-30T12:01:04.560Z,5.93
2018-07-30T12:03:33.003Z,5.90
2018-07-30T12:06:01.430Z,5.47
2018-07-30T12:08:29.815Z,5.90
2018-07-30T12:10:58.167Z,6.00
2018-07-30T12:13:26.515Z,6.17
2018-07-30T12:15:54.881Z,6.20
2018-07-30T12:18:23.265Z,6.10
2018-07-30T12:20:51.604Z,5.67
2018-07-30T12:23:19.925Z,6.13
2018-07-30T12:25:48.249Z,6.30
2018-07-30T12:28:16.561Z,6.30
2018-07-30T12:30:44.911Z,6.13
2018-07-30T12:33:13.145Z,5.90
2018-07-30T12:35:41.460Z,6.03
2018-07-30T12:38:09.782Z,5.63
2018-07-30T12:40:38.171Z,5.87
2018-07-30T12:43:06.535Z,6.00
2018-07-30T12:45:40.398Z,5.70
2018-07-30T12:48:08.801Z,5.93
2018-07-30T12:50:37.305Z,5.53
2018-07-30T12:53:05.657Z,5.77
2018-07-30T12:55:34.974Z,5.73
2018-07-30T12:58:03.520Z,6.03
2018-07-30T13:00:31.761Z,5.87
2018-07-30T13:03:00.365Z,5.93
2018-07-30T13:05:28.717Z,5.80
2018-07-30T13:07:57.114Z,6.33
2018-07-30T13:10:25.492Z,6.17
2018-07-30T13:12:53.982Z,5.50
2018-07-30T13:15:22.185Z,6.00
2018-07-30T13:17:50.686Z,5.80
2018-07-30T13:20:18.981Z,5.73
2018-07-30T13:22:47.296Z,6.27
2018-07-30T13:25:15.497Z,5.73
2018-07-30T13:27:43.691Z,6.40
2018-07-30T13:30:12.070Z,5.83
2018-07-30T13:32:40.382Z,5.73
2018-07-30T13:35:08.686Z,6.10
2018-07-30T13:37:37.002Z,5.50
2018-07-30T13:40:05.540Z,5.17
2018-07-30T13:42:33.955Z,5.97
2018-07-30T13:45:02.406Z,6.70
2018-07-30T13:47:30.798Z,6.23
2018-07-30T13:49:59.177Z,5.40
2018-07-30T13:52:27.557Z,5.53
2018-07-30T13:54:55.935Z,5.63
2018-07-30T13:57:24.246Z,6.10
2018-07-30T13:59:52.595Z,5.70
2018-07-30T14:02:20.917Z,5.80
2018-07-30T14:04:49.110Z,5.40
2018-07-30T14:07:17.541Z,6.07
2018-07-30T14:09:45.898Z,6.37
2018-07-30T14:12:14.237Z,5.43
2018-07-30T14:14:42.568Z,5.43
2018-07-30T14:17:10.902Z,5.27
2018-07-30T14:19:39.241Z,5.53
2018-07-30T14:22:07.570Z,6.20
2018-07-30T14:24:35.971Z,6.10
2018-07-30T14:27:04.421Z,6.20
2018-07-30T14:29:32.714Z,6.03
2018-07-30T14:32:01.091Z,5.20
2018-07-30T14:34:29.473Z,5.53
2018-07-30T14:36:57.849Z,5.43
2018-07-30T14:39:26.157Z,5.30
2018-07-30T14:41:54.512Z,5.27
2018-07-30T14:44:22.902Z,5.50
2018-07-30T14:46:51.296Z,5.47
2018-07-30T14:49:19.648Z,4.97
2018-07-30T14:51:48.083Z,5.00
2018-07-30T14:54:16.480Z,5.40
2018-07-30T14:56:44.851Z,5.80
2018-07-30T14:59:13.302Z,5.60
2018-07-30T15:01:41.561Z,6.10
2018-07-30T15:04:09.808Z,6.20
2018-07-30T15:06:38.213Z,5.60
2018-07-30T15:09:11.058Z,5.30
2018-07-30T15:11:39.559Z,5.80
2018-07-30T15:14:07.939Z,5.30
2018-07-30T15:16:36.941Z,4.77
2018-07-30T15:19:07.359Z,5.27
2018-07-30T15:21:35.725Z,5.17
2018-07-30T15:24:04.204Z,5.57
2018-07-30T15:26:32.642Z,5.03
2018-07-30T15:29:01.026Z,5.90
2018-07-30T15:31:29.437Z,5.50
2018-07-30T15:33:57.812Z,5.30
2018-07-30T15:36:26.228Z,5.23
2018-07-30T15:38:54.625Z,4.83
2018-07-30T15:41:23.002Z,5.50
2018-07-30T15:43:51.329Z,5.27
2018-07-30T15:46:19.662Z,4.63
2018-07-30T15:48:48.105Z,5.43
2018-07-30T15:51:16.448Z,5.50
2018-07-30T15:53:44.873Z,5.20
2018-07-30T15:56:13.232Z,5.33
2018-07-30T15:58:41.548Z,5.30
2018-07-30T16:01:09.988Z,4.93
2018-07-30T16:03:38.281Z,6.13
2018-07-30T16:06:06.648Z,8.47
2018-07-30T16:08:34.909Z,6.10
2018-07-30T16:11:03.323Z,5.60
2018-07-30T16:13:31.697Z,5.10
2018-07-30T16:16:00.034Z,5.47
2018-07-30T16:18:28.443Z,5.60
2018-07-30T16:20:56.820Z,5.50
2018-07-30T16:23:25.291Z,5.83
2018-07-30T16:25:53.590Z,5.03
2018-07-30T16:28:21.980Z,5.87
2018-07-30T16:30:50.443Z,5.40
2018-07-30T16:33:18.776Z,5.50
2018-07-30T16:35:47.249Z,5.73
2018-07-30T16:38:15.647Z,5.40
2018-07-30T16:40:44.059Z,4.73
2018-07-30T16:43:12.549Z,5.10
2018-07-30T16:45:40.941Z,4.43
2018-07-30T16:48:09.269Z,5.70
2018-07-30T16:50:37.637Z,5.70
2018-07-30T16:53:05.912Z,5.40
2018-07-30T16:55:34.236Z,5.50
2018-07-30T16:58:02.723Z,5.17
2018-07-30T17:00:31.150Z,5.83
2018-07-30T17:02:59.710Z,5.10
2018-07-30T17:05:28.081Z,4.83
2018-07-30T17:07:56.426Z,5.00
2018-07-30T17:10:24.810Z,6.00
2018-07-30T17:12:53.224Z,5.90
2018-07-30T17:15:21.521Z,5.83
2018-07-30T17:17:49.816Z,6.73
2018-07-30T17:20:18.185Z,8.20
2018-07-30T17:22:46.593Z,7.60
2018-07-30T17:25:15.895Z,7.63
2018-07-30T17:27:44.362Z,6.20
2018-07-30T17:30:13.093Z,6.30
2018-07-30T17:32:41.470Z,6.70
2018-07-30T17:35:10.234Z,6.70
2018-07-30T17:37:39.017Z,6.73
2018-07-30T17:40:08.420Z,6.43
2018-07-30T17:42:37.514Z,6.10
2018-07-30T17:45:09.501Z,6.37
2018-07-30T17:47:37.881Z,7.30
2018-07-30T17:50:07.789Z,6.20
2018-07-30T17:52:36.496Z,6.00
2018-07-30T17:55:05.206Z,6.50
2018-07-30T17:57:33.906Z,7.27
2018-07-30T18:00:02.487Z,6.80
2018-07-30T18:02:30.969Z,6.30
2018-07-30T18:04:59.453Z,6.73
2018-07-30T18:07:28.348Z,7.90
2018-07-30T18:09:56.912Z,6.83
2018-07-30T18:12:25.330Z,6.83
2018-07-30T18:14:53.956Z,6.87
2018-07-30T18:17:22.493Z,7.47
2018-07-30T18:19:50.977Z,6.33
2018-07-30T18:22:19.425Z,7.27
2018-07-30T18:24:47.928Z,6.73
2018-07-30T18:27:16.344Z,5.83
2018-07-30T18:29:44.828Z,6.50
2018-07-30T18:32:13.239Z,5.00
2018-07-30T18:34:41.693Z,6.40
2018-07-30T18:37:10.142Z,5.60
2018-07-30T18:39:38.613Z,5.77
2018-07-30T18:42:07.057Z,5.50
2018-07-30T18:44:35.486Z,5.80
2018-07-30T18:47:03.987Z,5.20
2018-07-30T18:49:32.425Z,6.60
2018-07-30T18:52:00.941Z,5.80
2018-07-30T18:54:29.500Z,5.17
2018-07-30T18:56:57.944Z,5.10
2018-07-30T18:59:26.456Z,5.30
2018-07-30T19:01:54.864Z,5.63
2018-07-30T19:04:23.415Z,5.30
2018-07-30T19:06:51.930Z,5.50
2018-07-30T19:09:20.572Z,5.87
2018-07-30T19:11:49.332Z,6.60
2018-07-30T19:14:17.872Z,5.97
2018-07-30T19:16:50.940Z,14.23
2018-07-30T19:19:19.228Z,9.50
2018-07-30T19:21:48.212Z,6.23
2018-07-30T19:24:17.091Z,6.73
2018-07-30T19:26:45.706Z,7.00
2018-07-30T19:29:14.149Z,6.30
2018-07-30T19:31:42.699Z,7.60
2018-07-30T19:34:11.404Z,7.10
2018-07-30T19:36:39.747Z,6.90
2018-07-30T19:39:12.146Z,6.40
2018-07-30T19:41:41.874Z,7.33
2018-07-30T19:44:11.323Z,6.40
2018-07-30T19:46:39.606Z,7.90
2018-07-30T19:49:08.217Z,6.90
2018-07-30T19:51:36.874Z,8.20
2018-07-30T19:54:05.783Z,7.90
2018-07-30T19:56:34.537Z,7.70
2018-07-30T19:59:03.607Z,7.90
2018-07-30T20:01:32.126Z,7.30
2018-07-30T20:04:01.204Z,7.43
2018-07-30T20:06:29.527Z,6.40
2018-07-30T20:08:58.165Z,7.40
2018-07-30T20:11:27.061Z,7.30
2018-07-30T20:13:55.822Z,7.97
2018-07-30T20:16:24.582Z,6.80
2018-07-30T20:18:53.420Z,7.33
2018-07-30T20:21:22.538Z,7.13
2018-07-30T20:23:51.044Z,6.97
2018-07-30T20:26:19.625Z,6.93
2018-07-30T20:28:48.325Z,7.20
2018-07-30T20:31:22.625Z,6.80
2018-07-30T20:33:51.489Z,6.10
2018-07-30T20:36:22.042Z,7.63
2018-07-30T20:38:51.949Z,7.03
2018-07-30T20:41:20.443Z,6.53
2018-07-30T20:43:48.737Z,7.40
2018-07-30T20:46:17.093Z,5.93
2018-07-30T20:48:45.591Z,7.00
2018-07-30T20:51:13.934Z,6.30
2018-07-30T20:53:42.345Z,7.20
2018-07-30T20:56:10.718Z,6.10
2018-07-30T20:58:39.396Z,6.73
2018-07-30T21:01:07.854Z,6.23
2018-07-30T21:03:36.296Z,6.37
2018-07-30T21:06:04.821Z,6.77
2018-07-30T21:08:33.209Z,6.40
2018-07-30T21:11:01.617Z,6.80
2018-07-30T21:13:29.993Z,6.33
2018-07-30T21:15:58.413Z,6.37
2018-07-30T21:18:26.768Z,6.60
2018-07-30T21:20:55.182Z,6.20
2018-07-30T21:23:23.573Z,7.10
2018-07-30T21:25:51.993Z,6.17
2018-07-30T21:28:20.351Z,5.40
2018-07-30T21:30:48.818Z,6.10
2018-07-30T21:33:17.213Z,5.77
2018-07-30T21:35:45.565Z,6.50
2018-07-30T21:38:13.916Z,5.83
2018-07-30T21:40:42.382Z,7.10
2018-07-30T21:43:10.778Z,6.97
2018-07-30T21:45:39.222Z,7.00
2018-07-30T21:48:07.617Z,6.53
2018-07-30T21:50:36.019Z,6.80
2018-07-30T21:53:04.417Z,7.70
2018-07-30T21:55:32.734Z,6.87
2018-07-30T21:58:01.039Z,6.63
2018-07-30T22:00:29.580Z,7.13
2018-07-30T22:02:58.069Z,6.73
2018-07-30T22:05:26.446Z,6.73
2018-07-30T22:07:54.817Z,6.70
2018-07-30T22:10:24.535Z,6.77
2018-07-30T22:12:54.972Z,6.13
2018-07-30T22:15:24.085Z,6.10
2018-07-30T22:17:52.489Z,5.20
2018-07-30T22:20:20.880Z,6.00
2018-07-30T22:22:49.458Z,6.20
2018-07-30T22:25:17.837Z,5.90
2018-07-30T22:27:46.225Z,6.80
2018-07-30T22:30:14.745Z,5.80
2018-07-30T22:32:43.174Z,6.13
2018-07-30T22:35:11.551Z,6.20
2018-07-30T22:37:39.851Z,5.70
2018-07-30T22:40:09.104Z,6.00
2018-07-30T22:42:37.481Z,6.20
2018-07-30T22:45:05.906Z,5.93
2018-07-30T22:47:34.239Z,6.53
2018-07-30T22:50:03.120Z,6.20
2018-07-30T22:52:31.317Z,5.80
2018-07-30T22:54:59.686Z,6.07
2018-07-30T22:57:28.047Z,5.87
2018-07-30T22:59:56.426Z,6.10
2018-07-30T23:02:24.801Z,6.47
2018-07-30T23:04:53.202Z,5.33
2018-07-30T23:07:21.441Z,6.77
2018-07-30T23:09:50.437Z,5.77
2018-07-30T23:12:18.785Z,5.10
2018-07-30T23:14:47.097Z,5.73
2018-07-30T23:17:15.399Z,5.70
2018-07-30T23:19:43.765Z,5.43
2018-07-30T23:22:12.085Z,5.60
2018-07-30T23:24:40.394Z,6.03
2018-07-30T23:27:08.729Z,5.77
2018-07-30T23:29:37.081Z,6.20
2018-07-30T23:32:05.542Z,5.77
2018-07-30T23:34:33.870Z,5.27
2018-07-30T23:37:02.392Z,5.70
2018-07-30T23:39:30.719Z,5.97
2018-07-30T23:41:59.124Z,6.10
2018-07-30T23:44:27.505Z,5.73
2018-07-30T23:46:55.884Z,5.67
2018-07-30T23:49:24.190Z,5.67
2018-07-30T23:51:52.512Z,6.37
2018-07-30T23:54:20.808Z,5.87
2018-07-30T23:56:49.139Z,6.00
2018-07-30T23:59:17.479Z,5.97
